<?xml version="1.0" encoding="UTF-8" standalone="no" ?>
<gpx xmlns="http://www.topografix.com/GPX/1/1" xmlns:xsi="http://www.w3.org/2001/XMLSchema-instance" xsi:schemaLocation="http://www.topografix.com/GPX/1/1 http://www.topografix.com/GPX/1/1/gpx.xsd" version="1.1" creator="VisuGPX - https://www.visugpx.com">
  <metadata>
    <name>Vernet-les-Bains, col de Llavent, Cascades des Anglais</name>
    <desc><![CDATA[TOPO sur notre site:
http://randonnees-pyrenees-orientales.e-monsite.com/pages/pyrenees-orientales/conflent-bas/vernet-les-bains-col-de-llavent-cascades-des-anglais.html]]></desc>
  </metadata>
  <trk>
    <name><![CDATA[3037736-La cascade des Anglais]]></name>
    <extensions>
      <line xmlns="http://www.topografix.com/GPX/gpx_style/0/2">
        <color>0000FF</color>
        <width>4</width>
      </line>
    </extensions>
    <trkseg>
      <trkpt lat="42.54307" lon="2.39109">
        <ele>680</ele>
        <time>2022-07-05T09:01:40Z</time>
      </trkpt>
      <trkpt lat="42.54338" lon="2.39092">
        <ele>675</ele>
        <time>2022-07-05T09:02:25Z</time>
      </trkpt>
      <trkpt lat="42.54364" lon="2.39073">
        <ele>675</ele>
        <time>2022-07-05T09:03:04Z</time>
      </trkpt>
      <trkpt lat="42.54387" lon="2.39064">
        <ele>674</ele>
        <time>2022-07-05T09:03:36Z</time>
      </trkpt>
      <trkpt lat="42.544" lon="2.39054">
        <ele>673</ele>
        <time>2022-07-05T09:03:56Z</time>
      </trkpt>
      <trkpt lat="42.54411" lon="2.3905">
        <ele>671</ele>
        <time>2022-07-05T09:04:11Z</time>
      </trkpt>
      <trkpt lat="42.54426" lon="2.39064">
        <ele>669</ele>
        <time>2022-07-05T09:04:35Z</time>
      </trkpt>
      <trkpt lat="42.54438" lon="2.39086">
        <ele>671</ele>
        <time>2022-07-05T09:05:02Z</time>
      </trkpt>
      <trkpt lat="42.54454" lon="2.39097">
        <ele>676</ele>
        <time>2022-07-05T09:05:26Z</time>
      </trkpt>
      <trkpt lat="42.54467" lon="2.39099">
        <ele>678</ele>
        <time>2022-07-05T09:05:44Z</time>
      </trkpt>
      <trkpt lat="42.54492" lon="2.39092">
        <ele>678</ele>
        <time>2022-07-05T09:06:18Z</time>
      </trkpt>
      <trkpt lat="42.54504" lon="2.39102">
        <ele>683</ele>
        <time>2022-07-05T09:06:37Z</time>
      </trkpt>
      <trkpt lat="42.54549" lon="2.39132">
        <ele>690</ele>
        <time>2022-07-05T09:07:43Z</time>
      </trkpt>
      <trkpt lat="42.54526" lon="2.39121">
        <ele>689</ele>
        <time>2022-07-05T09:08:16Z</time>
      </trkpt>
      <trkpt lat="42.54509" lon="2.39126">
        <ele>694</ele>
        <time>2022-07-05T09:08:39Z</time>
      </trkpt>
      <trkpt lat="42.54504" lon="2.3914">
        <ele>701</ele>
        <time>2022-07-05T09:08:55Z</time>
      </trkpt>
      <trkpt lat="42.54514" lon="2.39151">
        <ele>704</ele>
        <time>2022-07-05T09:09:12Z</time>
      </trkpt>
      <trkpt lat="42.54521" lon="2.39164">
        <ele>708</ele>
        <time>2022-07-05T09:09:28Z</time>
      </trkpt>
      <trkpt lat="42.54511" lon="2.39172">
        <ele>714</ele>
        <time>2022-07-05T09:09:43Z</time>
      </trkpt>
      <trkpt lat="42.54522" lon="2.39209">
        <ele>728</ele>
        <time>2022-07-05T09:10:22Z</time>
      </trkpt>
      <trkpt lat="42.54528" lon="2.39222">
        <ele>732</ele>
        <time>2022-07-05T09:10:37Z</time>
      </trkpt>
      <trkpt lat="42.54553" lon="2.39232">
        <ele>730</ele>
        <time>2022-07-05T09:11:12Z</time>
      </trkpt>
      <trkpt lat="42.54571" lon="2.3925">
        <ele>733</ele>
        <time>2022-07-05T09:11:42Z</time>
      </trkpt>
      <trkpt lat="42.546" lon="2.39283">
        <ele>742</ele>
        <time>2022-07-05T09:12:32Z</time>
      </trkpt>
      <trkpt lat="42.54692" lon="2.39359">
        <ele>748</ele>
        <time>2022-07-05T09:14:56Z</time>
      </trkpt>
      <trkpt lat="42.54676" lon="2.39368">
        <ele>753</ele>
        <time>2022-07-05T09:15:19Z</time>
      </trkpt>
      <trkpt lat="42.54638" lon="2.39346">
        <ele>759</ele>
        <time>2022-07-05T09:16:14Z</time>
      </trkpt>
      <trkpt lat="42.5461" lon="2.39322">
        <ele>758</ele>
        <time>2022-07-05T09:16:59Z</time>
      </trkpt>
      <trkpt lat="42.54581" lon="2.39308">
        <ele>758</ele>
        <time>2022-07-05T09:17:40Z</time>
      </trkpt>
      <trkpt lat="42.54558" lon="2.39301">
        <ele>760</ele>
        <time>2022-07-05T09:18:11Z</time>
      </trkpt>
      <trkpt lat="42.54516" lon="2.39301">
        <ele>768</ele>
        <time>2022-07-05T09:19:07Z</time>
      </trkpt>
      <trkpt lat="42.54503" lon="2.39295">
        <ele>769</ele>
        <time>2022-07-05T09:19:25Z</time>
      </trkpt>
      <trkpt lat="42.54483" lon="2.39278">
        <ele>760</ele>
        <time>2022-07-05T09:19:57Z</time>
      </trkpt>
      <trkpt lat="42.5446" lon="2.3925">
        <ele>746</ele>
        <time>2022-07-05T09:20:38Z</time>
      </trkpt>
      <trkpt lat="42.54448" lon="2.39247">
        <ele>743</ele>
        <time>2022-07-05T09:20:54Z</time>
      </trkpt>
      <trkpt lat="42.54455" lon="2.39269">
        <ele>752</ele>
        <time>2022-07-05T09:21:18Z</time>
      </trkpt>
      <trkpt lat="42.54439" lon="2.39284">
        <ele>755</ele>
        <time>2022-07-05T09:21:44Z</time>
      </trkpt>
      <trkpt lat="42.54448" lon="2.39291">
        <ele>759</ele>
        <time>2022-07-05T09:21:58Z</time>
      </trkpt>
      <trkpt lat="42.5448" lon="2.3933">
        <ele>779</ele>
        <time>2022-07-05T09:22:55Z</time>
      </trkpt>
      <trkpt lat="42.54461" lon="2.39331">
        <ele>776</ele>
        <time>2022-07-05T09:23:21Z</time>
      </trkpt>
      <trkpt lat="42.5447" lon="2.39344">
        <ele>782</ele>
        <time>2022-07-05T09:23:38Z</time>
      </trkpt>
      <trkpt lat="42.54485" lon="2.3936">
        <ele>792</ele>
        <time>2022-07-05T09:24:04Z</time>
      </trkpt>
      <trkpt lat="42.54465" lon="2.3936">
        <ele>787</ele>
        <time>2022-07-05T09:24:30Z</time>
      </trkpt>
      <trkpt lat="42.5448" lon="2.39371">
        <ele>795</ele>
        <time>2022-07-05T09:24:53Z</time>
      </trkpt>
      <trkpt lat="42.54491" lon="2.39385">
        <ele>803</ele>
        <time>2022-07-05T09:25:13Z</time>
      </trkpt>
      <trkpt lat="42.54478" lon="2.3939">
        <ele>802</ele>
        <time>2022-07-05T09:25:31Z</time>
      </trkpt>
      <trkpt lat="42.54497" lon="2.394">
        <ele>810</ele>
        <time>2022-07-05T09:25:58Z</time>
      </trkpt>
      <trkpt lat="42.54513" lon="2.39403">
        <ele>809</ele>
        <time>2022-07-05T09:26:20Z</time>
      </trkpt>
      <trkpt lat="42.54527" lon="2.39414">
        <ele>810</ele>
        <time>2022-07-05T09:26:42Z</time>
      </trkpt>
      <trkpt lat="42.54535" lon="2.3943">
        <ele>813</ele>
        <time>2022-07-05T09:27:01Z</time>
      </trkpt>
      <trkpt lat="42.5454" lon="2.39446">
        <ele>817</ele>
        <time>2022-07-05T09:27:18Z</time>
      </trkpt>
      <trkpt lat="42.54548" lon="2.39463">
        <ele>821</ele>
        <time>2022-07-05T09:27:37Z</time>
      </trkpt>
      <trkpt lat="42.54556" lon="2.39491">
        <ele>827</ele>
        <time>2022-07-05T09:28:07Z</time>
      </trkpt>
      <trkpt lat="42.54559" lon="2.39512">
        <ele>831</ele>
        <time>2022-07-05T09:28:28Z</time>
      </trkpt>
      <trkpt lat="42.54558" lon="2.39527">
        <ele>835</ele>
        <time>2022-07-05T09:28:43Z</time>
      </trkpt>
      <trkpt lat="42.5456" lon="2.39543">
        <ele>837</ele>
        <time>2022-07-05T09:28:59Z</time>
      </trkpt>
      <trkpt lat="42.54561" lon="2.39561">
        <ele>839</ele>
        <time>2022-07-05T09:29:17Z</time>
      </trkpt>
      <trkpt lat="42.5455" lon="2.39545">
        <ele>841</ele>
        <time>2022-07-05T09:29:38Z</time>
      </trkpt>
      <trkpt lat="42.54541" lon="2.39522">
        <ele>840</ele>
        <time>2022-07-05T09:30:04Z</time>
      </trkpt>
      <trkpt lat="42.54526" lon="2.39501">
        <ele>841</ele>
        <time>2022-07-05T09:30:32Z</time>
      </trkpt>
      <trkpt lat="42.54512" lon="2.39494">
        <ele>843</ele>
        <time>2022-07-05T09:30:52Z</time>
      </trkpt>
      <trkpt lat="42.54519" lon="2.39514">
        <ele>846</ele>
        <time>2022-07-05T09:31:14Z</time>
      </trkpt>
      <trkpt lat="42.54533" lon="2.39562">
        <ele>853</ele>
        <time>2022-07-05T09:32:05Z</time>
      </trkpt>
      <trkpt lat="42.5451" lon="2.39538">
        <ele>857</ele>
        <time>2022-07-05T09:32:44Z</time>
      </trkpt>
      <trkpt lat="42.54497" lon="2.39537">
        <ele>860</ele>
        <time>2022-07-05T09:33:01Z</time>
      </trkpt>
      <trkpt lat="42.54511" lon="2.39563">
        <ele>863</ele>
        <time>2022-07-05T09:33:33Z</time>
      </trkpt>
      <trkpt lat="42.54517" lon="2.39582">
        <ele>866</ele>
        <time>2022-07-05T09:33:53Z</time>
      </trkpt>
      <trkpt lat="42.54503" lon="2.39586">
        <ele>873</ele>
        <time>2022-07-05T09:34:12Z</time>
      </trkpt>
      <trkpt lat="42.54491" lon="2.39606">
        <ele>873</ele>
        <time>2022-07-05T09:34:37Z</time>
      </trkpt>
      <trkpt lat="42.54486" lon="2.39625">
        <ele>871</ele>
        <time>2022-07-05T09:34:57Z</time>
      </trkpt>
      <trkpt lat="42.54472" lon="2.3962">
        <ele>873</ele>
        <time>2022-07-05T09:35:17Z</time>
      </trkpt>
      <trkpt lat="42.54429" lon="2.3963">
        <ele>878</ele>
        <time>2022-07-05T09:36:15Z</time>
      </trkpt>
      <trkpt lat="42.54417" lon="2.39639">
        <ele>881</ele>
        <time>2022-07-05T09:36:33Z</time>
      </trkpt>
      <trkpt lat="42.54395" lon="2.39668">
        <ele>882</ele>
        <time>2022-07-05T09:37:14Z</time>
      </trkpt>
      <trkpt lat="42.5439" lon="2.39683">
        <ele>878</ele>
        <time>2022-07-05T09:37:30Z</time>
      </trkpt>
      <trkpt lat="42.54379" lon="2.39693">
        <ele>877</ele>
        <time>2022-07-05T09:37:48Z</time>
      </trkpt>
      <trkpt lat="42.54365" lon="2.39698">
        <ele>877</ele>
        <time>2022-07-05T09:38:07Z</time>
      </trkpt>
      <trkpt lat="42.54356" lon="2.39714">
        <ele>877</ele>
        <time>2022-07-05T09:38:27Z</time>
      </trkpt>
      <trkpt lat="42.54344" lon="2.39719">
        <ele>878</ele>
        <time>2022-07-05T09:38:44Z</time>
      </trkpt>
      <trkpt lat="42.54325" lon="2.39746">
        <ele>880</ele>
        <time>2022-07-05T09:39:20Z</time>
      </trkpt>
      <trkpt lat="42.54287" lon="2.39785">
        <ele>879</ele>
        <time>2022-07-05T09:40:24Z</time>
      </trkpt>
      <trkpt lat="42.54264" lon="2.39805">
        <ele>884</ele>
        <time>2022-07-05T09:41:00Z</time>
      </trkpt>
      <trkpt lat="42.54254" lon="2.39824">
        <ele>889</ele>
        <time>2022-07-05T09:41:23Z</time>
      </trkpt>
      <trkpt lat="42.54223" lon="2.39861">
        <ele>895</ele>
        <time>2022-07-05T09:42:18Z</time>
      </trkpt>
      <trkpt lat="42.54215" lon="2.39879">
        <ele>897</ele>
        <time>2022-07-05T09:42:39Z</time>
      </trkpt>
      <trkpt lat="42.54202" lon="2.39892">
        <ele>903</ele>
        <time>2022-07-05T09:43:01Z</time>
      </trkpt>
      <trkpt lat="42.54192" lon="2.39908">
        <ele>909</ele>
        <time>2022-07-05T09:43:21Z</time>
      </trkpt>
      <trkpt lat="42.5418" lon="2.39922">
        <ele>916</ele>
        <time>2022-07-05T09:43:42Z</time>
      </trkpt>
      <trkpt lat="42.54157" lon="2.39958">
        <ele>922</ele>
        <time>2022-07-05T09:44:29Z</time>
      </trkpt>
      <trkpt lat="42.54156" lon="2.39934">
        <ele>925</ele>
        <time>2022-07-05T09:44:53Z</time>
      </trkpt>
      <trkpt lat="42.54162" lon="2.39897">
        <ele>919</ele>
        <time>2022-07-05T09:45:30Z</time>
      </trkpt>
      <trkpt lat="42.54131" lon="2.39905">
        <ele>927</ele>
        <time>2022-07-05T09:46:12Z</time>
      </trkpt>
      <trkpt lat="42.5408" lon="2.3991">
        <ele>939</ele>
        <time>2022-07-05T09:47:21Z</time>
      </trkpt>
      <trkpt lat="42.5407" lon="2.39917">
        <ele>944</ele>
        <time>2022-07-05T09:47:36Z</time>
      </trkpt>
      <trkpt lat="42.54004" lon="2.39931">
        <ele>956</ele>
        <time>2022-07-05T09:49:05Z</time>
      </trkpt>
      <trkpt lat="42.53894" lon="2.39922">
        <ele>968</ele>
        <time>2022-07-05T09:51:32Z</time>
      </trkpt>
      <trkpt lat="42.53864" lon="2.39908">
        <ele>967</ele>
        <time>2022-07-05T09:52:14Z</time>
      </trkpt>
      <trkpt lat="42.53851" lon="2.39904">
        <ele>967</ele>
        <time>2022-07-05T09:52:32Z</time>
      </trkpt>
      <trkpt lat="42.53866" lon="2.39926">
        <ele>972</ele>
        <time>2022-07-05T09:53:01Z</time>
      </trkpt>
      <trkpt lat="42.53873" lon="2.3994">
        <ele>974</ele>
        <time>2022-07-05T09:53:18Z</time>
      </trkpt>
      <trkpt lat="42.5384" lon="2.39939">
        <ele>978</ele>
        <time>2022-07-05T09:54:02Z</time>
      </trkpt>
      <trkpt lat="42.53811" lon="2.39947">
        <ele>980</ele>
        <time>2022-07-05T09:54:41Z</time>
      </trkpt>
      <trkpt lat="42.53821" lon="2.39961">
        <ele>983</ele>
        <time>2022-07-05T09:55:01Z</time>
      </trkpt>
      <trkpt lat="42.53814" lon="2.39974">
        <ele>986</ele>
        <time>2022-07-05T09:55:16Z</time>
      </trkpt>
      <trkpt lat="42.53796" lon="2.39989">
        <ele>990</ele>
        <time>2022-07-05T09:55:45Z</time>
      </trkpt>
      <trkpt lat="42.53777" lon="2.39992">
        <ele>991</ele>
        <time>2022-07-05T09:56:10Z</time>
      </trkpt>
      <trkpt lat="42.53708" lon="2.40019">
        <ele>986</ele>
        <time>2022-07-05T09:57:46Z</time>
      </trkpt>
      <trkpt lat="42.53696" lon="2.4002">
        <ele>985</ele>
        <time>2022-07-05T09:58:02Z</time>
      </trkpt>
      <trkpt lat="42.53691" lon="2.39998">
        <ele>985</ele>
        <time>2022-07-05T09:58:25Z</time>
      </trkpt>
      <trkpt lat="42.53668" lon="2.40004">
        <ele>982</ele>
        <time>2022-07-05T09:58:56Z</time>
      </trkpt>
      <trkpt lat="42.5366" lon="2.4002">
        <ele>978</ele>
        <time>2022-07-05T09:59:15Z</time>
      </trkpt>
      <trkpt lat="42.53656" lon="2.40035">
        <ele>976</ele>
        <time>2022-07-05T09:59:31Z</time>
      </trkpt>
      <trkpt lat="42.53654" lon="2.40056">
        <ele>976</ele>
        <time>2022-07-05T09:59:51Z</time>
      </trkpt>
      <trkpt lat="42.5365" lon="2.40083">
        <ele>975</ele>
        <time>2022-07-05T10:00:19Z</time>
      </trkpt>
      <trkpt lat="42.53648" lon="2.40111">
        <ele>971</ele>
        <time>2022-07-05T10:00:46Z</time>
      </trkpt>
      <trkpt lat="42.53646" lon="2.40128">
        <ele>969</ele>
        <time>2022-07-05T10:01:03Z</time>
      </trkpt>
      <trkpt lat="42.53631" lon="2.4017">
        <ele>964</ele>
        <time>2022-07-05T10:01:49Z</time>
      </trkpt>
      <trkpt lat="42.5362" lon="2.40197">
        <ele>962</ele>
        <time>2022-07-05T10:02:19Z</time>
      </trkpt>
      <trkpt lat="42.5361" lon="2.40224">
        <ele>960</ele>
        <time>2022-07-05T10:02:49Z</time>
      </trkpt>
      <trkpt lat="42.53588" lon="2.40277">
        <ele>962</ele>
        <time>2022-07-05T10:03:49Z</time>
      </trkpt>
      <trkpt lat="42.53578" lon="2.40304">
        <ele>963</ele>
        <time>2022-07-05T10:04:19Z</time>
      </trkpt>
      <trkpt lat="42.53586" lon="2.40318">
        <ele>963</ele>
        <time>2022-07-05T10:04:36Z</time>
      </trkpt>
      <trkpt lat="42.53598" lon="2.40366">
        <ele>963</ele>
        <time>2022-07-05T10:05:26Z</time>
      </trkpt>
      <trkpt lat="42.53606" lon="2.40382">
        <ele>961</ele>
        <time>2022-07-05T10:05:45Z</time>
      </trkpt>
      <trkpt lat="42.53615" lon="2.40408">
        <ele>961</ele>
        <time>2022-07-05T10:06:13Z</time>
      </trkpt>
      <trkpt lat="42.53627" lon="2.40425">
        <ele>958</ele>
        <time>2022-07-05T10:06:36Z</time>
      </trkpt>
      <trkpt lat="42.53632" lon="2.40441">
        <ele>958</ele>
        <time>2022-07-05T10:06:53Z</time>
      </trkpt>
      <trkpt lat="42.53642" lon="2.40463">
        <ele>957</ele>
        <time>2022-07-05T10:07:19Z</time>
      </trkpt>
      <trkpt lat="42.53657" lon="2.40469">
        <ele>951</ele>
        <time>2022-07-05T10:07:40Z</time>
      </trkpt>
      <trkpt lat="42.53664" lon="2.40458">
        <ele>947</ele>
        <time>2022-07-05T10:07:54Z</time>
      </trkpt>
      <trkpt lat="42.53682" lon="2.40451">
        <ele>943</ele>
        <time>2022-07-05T10:08:19Z</time>
      </trkpt>
      <trkpt lat="42.53691" lon="2.40442">
        <ele>940</ele>
        <time>2022-07-05T10:08:34Z</time>
      </trkpt>
      <trkpt lat="42.53698" lon="2.40427">
        <ele>936</ele>
        <time>2022-07-05T10:08:51Z</time>
      </trkpt>
      <trkpt lat="42.53707" lon="2.40413">
        <ele>933</ele>
        <time>2022-07-05T10:09:10Z</time>
      </trkpt>
      <trkpt lat="42.53711" lon="2.40397">
        <ele>930</ele>
        <time>2022-07-05T10:09:26Z</time>
      </trkpt>
      <trkpt lat="42.53723" lon="2.40377">
        <ele>925</ele>
        <time>2022-07-05T10:09:52Z</time>
      </trkpt>
      <trkpt lat="42.53739" lon="2.40386">
        <ele>923</ele>
        <time>2022-07-05T10:10:15Z</time>
      </trkpt>
      <trkpt lat="42.53765" lon="2.40388">
        <ele>917</ele>
        <time>2022-07-05T10:10:49Z</time>
      </trkpt>
      <trkpt lat="42.53778" lon="2.40381">
        <ele>913</ele>
        <time>2022-07-05T10:11:08Z</time>
      </trkpt>
      <trkpt lat="42.53805" lon="2.40375">
        <ele>906</ele>
        <time>2022-07-05T10:11:45Z</time>
      </trkpt>
      <trkpt lat="42.53814" lon="2.40383">
        <ele>905</ele>
        <time>2022-07-05T10:11:59Z</time>
      </trkpt>
      <trkpt lat="42.53827" lon="2.404">
        <ele>904</ele>
        <time>2022-07-05T10:12:23Z</time>
      </trkpt>
      <trkpt lat="42.53833" lon="2.40414">
        <ele>904</ele>
        <time>2022-07-05T10:12:39Z</time>
      </trkpt>
      <trkpt lat="42.5384" lon="2.40429">
        <ele>907</ele>
        <time>2022-07-05T10:12:56Z</time>
      </trkpt>
      <trkpt lat="42.53841" lon="2.40445">
        <ele>913</ele>
        <time>2022-07-05T10:13:12Z</time>
      </trkpt>
      <trkpt lat="42.53842" lon="2.4046">
        <ele>918</ele>
        <time>2022-07-05T10:13:27Z</time>
      </trkpt>
      <trkpt lat="42.53852" lon="2.40481">
        <ele>922</ele>
        <time>2022-07-05T10:13:52Z</time>
      </trkpt>
      <trkpt lat="42.5386" lon="2.405">
        <ele>926</ele>
        <time>2022-07-05T10:14:13Z</time>
      </trkpt>
      <trkpt lat="42.53869" lon="2.40529">
        <ele>932</ele>
        <time>2022-07-05T10:14:44Z</time>
      </trkpt>
      <trkpt lat="42.53876" lon="2.40544">
        <ele>934</ele>
        <time>2022-07-05T10:15:02Z</time>
      </trkpt>
      <trkpt lat="42.53886" lon="2.40573">
        <ele>939</ele>
        <time>2022-07-05T10:15:33Z</time>
      </trkpt>
      <trkpt lat="42.53905" lon="2.4061">
        <ele>943</ele>
        <time>2022-07-05T10:16:17Z</time>
      </trkpt>
      <trkpt lat="42.53883" lon="2.40614">
        <ele>955</ele>
        <time>2022-07-05T10:16:47Z</time>
      </trkpt>
      <trkpt lat="42.53869" lon="2.4061">
        <ele>960</ele>
        <time>2022-07-05T10:17:06Z</time>
      </trkpt>
      <trkpt lat="42.53846" lon="2.40592">
        <ele>964</ele>
        <time>2022-07-05T10:17:42Z</time>
      </trkpt>
      <trkpt lat="42.53845" lon="2.40607">
        <ele>970</ele>
        <time>2022-07-05T10:17:56Z</time>
      </trkpt>
      <trkpt lat="42.53851" lon="2.40629">
        <ele>976</ele>
        <time>2022-07-05T10:18:19Z</time>
      </trkpt>
      <trkpt lat="42.53865" lon="2.40647">
        <ele>976</ele>
        <time>2022-07-05T10:18:45Z</time>
      </trkpt>
      <trkpt lat="42.53873" lon="2.40671">
        <ele>979</ele>
        <time>2022-07-05T10:19:11Z</time>
      </trkpt>
      <trkpt lat="42.53879" lon="2.40687">
        <ele>978</ele>
        <time>2022-07-05T10:19:29Z</time>
      </trkpt>
      <trkpt lat="42.53877" lon="2.40713">
        <ele>983</ele>
        <time>2022-07-05T10:19:54Z</time>
      </trkpt>
      <trkpt lat="42.53865" lon="2.40724">
        <ele>993</ele>
        <time>2022-07-05T10:20:14Z</time>
      </trkpt>
      <trkpt lat="42.53857" lon="2.40742">
        <ele>1002</ele>
        <time>2022-07-05T10:20:34Z</time>
      </trkpt>
      <trkpt lat="42.53855" lon="2.40763">
        <ele>1006</ele>
        <time>2022-07-05T10:20:55Z</time>
      </trkpt>
      <trkpt lat="42.53875" lon="2.40807">
        <ele>998</ele>
        <time>2022-07-05T10:21:46Z</time>
      </trkpt>
      <trkpt lat="42.53854" lon="2.40815">
        <ele>1012</ele>
        <time>2022-07-05T10:22:15Z</time>
      </trkpt>
      <trkpt lat="42.53841" lon="2.40831">
        <ele>1021</ele>
        <time>2022-07-05T10:22:39Z</time>
      </trkpt>
      <trkpt lat="42.53833" lon="2.40844">
        <ele>1027</ele>
        <time>2022-07-05T10:22:55Z</time>
      </trkpt>
      <trkpt lat="42.53826" lon="2.40859">
        <ele>1035</ele>
        <time>2022-07-05T10:23:13Z</time>
      </trkpt>
      <trkpt lat="42.53823" lon="2.4089">
        <ele>1042</ele>
        <time>2022-07-05T10:23:43Z</time>
      </trkpt>
      <trkpt lat="42.53809" lon="2.40933">
        <ele>1060</ele>
        <time>2022-07-05T10:24:30Z</time>
      </trkpt>
      <trkpt lat="42.53805" lon="2.4096">
        <ele>1068</ele>
        <time>2022-07-05T10:24:57Z</time>
      </trkpt>
      <trkpt lat="42.53817" lon="2.40976">
        <ele>1064</ele>
        <time>2022-07-05T10:25:19Z</time>
      </trkpt>
      <trkpt lat="42.53803" lon="2.40982">
        <ele>1073</ele>
        <time>2022-07-05T10:25:39Z</time>
      </trkpt>
      <trkpt lat="42.53817" lon="2.41005">
        <ele>1069</ele>
        <time>2022-07-05T10:26:08Z</time>
      </trkpt>
      <trkpt lat="42.53801" lon="2.4101">
        <ele>1078</ele>
        <time>2022-07-05T10:26:30Z</time>
      </trkpt>
      <trkpt lat="42.53791" lon="2.4102">
        <ele>1084</ele>
        <time>2022-07-05T10:26:47Z</time>
      </trkpt>
      <trkpt lat="42.53779" lon="2.41021">
        <ele>1091</ele>
        <time>2022-07-05T10:27:03Z</time>
      </trkpt>
      <trkpt lat="42.53767" lon="2.41029">
        <ele>1099</ele>
        <time>2022-07-05T10:27:20Z</time>
      </trkpt>
      <trkpt lat="42.53754" lon="2.4103">
        <ele>1108</ele>
        <time>2022-07-05T10:27:38Z</time>
      </trkpt>
      <trkpt lat="42.53756" lon="2.41054">
        <ele>1110</ele>
        <time>2022-07-05T10:28:02Z</time>
      </trkpt>
      <trkpt lat="42.53747" lon="2.41074">
        <ele>1119</ele>
        <time>2022-07-05T10:28:25Z</time>
      </trkpt>
      <trkpt lat="42.53751" lon="2.41098">
        <ele>1119</ele>
        <time>2022-07-05T10:28:49Z</time>
      </trkpt>
      <trkpt lat="42.53729" lon="2.41108">
        <ele>1137</ele>
        <time>2022-07-05T10:29:20Z</time>
      </trkpt>
      <trkpt lat="42.5371" lon="2.41107">
        <ele>1151</ele>
        <time>2022-07-05T10:29:45Z</time>
      </trkpt>
      <trkpt lat="42.53696" lon="2.41114">
        <ele>1163</ele>
        <time>2022-07-05T10:30:05Z</time>
      </trkpt>
      <trkpt lat="42.53678" lon="2.41118">
        <ele>1176</ele>
        <time>2022-07-05T10:30:29Z</time>
      </trkpt>
      <trkpt lat="42.53684" lon="2.4114">
        <ele>1175</ele>
        <time>2022-07-05T10:30:52Z</time>
      </trkpt>
      <trkpt lat="42.53696" lon="2.4116">
        <ele>1168</ele>
        <time>2022-07-05T10:31:18Z</time>
      </trkpt>
      <trkpt lat="42.53691" lon="2.4118">
        <ele>1175</ele>
        <time>2022-07-05T10:31:39Z</time>
      </trkpt>
      <trkpt lat="42.53671" lon="2.41186">
        <ele>1191</ele>
        <time>2022-07-05T10:32:06Z</time>
      </trkpt>
      <trkpt lat="42.53648" lon="2.4121">
        <ele>1212</ele>
        <time>2022-07-05T10:32:45Z</time>
      </trkpt>
      <trkpt lat="42.53656" lon="2.41244">
        <ele>1213</ele>
        <time>2022-07-05T10:33:20Z</time>
      </trkpt>
      <trkpt lat="42.53651" lon="2.41261">
        <ele>1221</ele>
        <time>2022-07-05T10:33:38Z</time>
      </trkpt>
      <trkpt lat="42.53656" lon="2.41283">
        <ele>1222</ele>
        <time>2022-07-05T10:34:00Z</time>
      </trkpt>
      <trkpt lat="42.53667" lon="2.41307">
        <ele>1220</ele>
        <time>2022-07-05T10:34:28Z</time>
      </trkpt>
      <trkpt lat="42.53672" lon="2.41328">
        <ele>1221</ele>
        <time>2022-07-05T10:34:50Z</time>
      </trkpt>
      <trkpt lat="42.53679" lon="2.41347">
        <ele>1220</ele>
        <time>2022-07-05T10:35:11Z</time>
      </trkpt>
      <trkpt lat="42.53681" lon="2.41363">
        <ele>1222</ele>
        <time>2022-07-05T10:35:27Z</time>
      </trkpt>
      <trkpt lat="42.53689" lon="2.41378">
        <ele>1219</ele>
        <time>2022-07-05T10:35:45Z</time>
      </trkpt>
      <trkpt lat="42.53698" lon="2.41411">
        <ele>1220</ele>
        <time>2022-07-05T10:36:20Z</time>
      </trkpt>
      <trkpt lat="42.53686" lon="2.41433">
        <ele>1233</ele>
        <time>2022-07-05T10:36:46Z</time>
      </trkpt>
      <trkpt lat="42.53683" lon="2.41458">
        <ele>1238</ele>
        <time>2022-07-05T10:37:11Z</time>
      </trkpt>
      <trkpt lat="42.53674" lon="2.41477">
        <ele>1249</ele>
        <time>2022-07-05T10:37:34Z</time>
      </trkpt>
      <trkpt lat="42.53667" lon="2.41498">
        <ele>1258</ele>
        <time>2022-07-05T10:37:56Z</time>
      </trkpt>
      <trkpt lat="42.53661" lon="2.41513">
        <ele>1263</ele>
        <time>2022-07-05T10:38:13Z</time>
      </trkpt>
      <trkpt lat="42.53661" lon="2.41529">
        <ele>1263</ele>
        <time>2022-07-05T10:38:29Z</time>
      </trkpt>
      <trkpt lat="42.53661" lon="2.41552">
        <ele>1263</ele>
        <time>2022-07-05T10:38:51Z</time>
      </trkpt>
      <trkpt lat="42.53655" lon="2.41576">
        <ele>1268</ele>
        <time>2022-07-05T10:39:16Z</time>
      </trkpt>
      <trkpt lat="42.53643" lon="2.41601">
        <ele>1275</ele>
        <time>2022-07-05T10:39:46Z</time>
      </trkpt>
      <trkpt lat="42.53645" lon="2.41628">
        <ele>1270</ele>
        <time>2022-07-05T10:40:12Z</time>
      </trkpt>
      <trkpt lat="42.53654" lon="2.41648">
        <ele>1259</ele>
        <time>2022-07-05T10:40:35Z</time>
      </trkpt>
      <trkpt lat="42.53655" lon="2.41678">
        <ele>1254</ele>
        <time>2022-07-05T10:41:05Z</time>
      </trkpt>
      <trkpt lat="42.53645" lon="2.41693">
        <ele>1260</ele>
        <time>2022-07-05T10:41:25Z</time>
      </trkpt>
      <trkpt lat="42.53641" lon="2.41708">
        <ele>1262</ele>
        <time>2022-07-05T10:41:40Z</time>
      </trkpt>
      <trkpt lat="42.53627" lon="2.41747">
        <ele>1268</ele>
        <time>2022-07-05T10:42:23Z</time>
      </trkpt>
      <trkpt lat="42.53622" lon="2.41769">
        <ele>1272</ele>
        <time>2022-07-05T10:42:46Z</time>
      </trkpt>
      <trkpt lat="42.53627" lon="2.41798">
        <ele>1267</ele>
        <time>2022-07-05T10:43:15Z</time>
      </trkpt>
      <trkpt lat="42.5365" lon="2.41817">
        <ele>1247</ele>
        <time>2022-07-05T10:43:51Z</time>
      </trkpt>
      <trkpt lat="42.53651" lon="2.41832">
        <ele>1246</ele>
        <time>2022-07-05T10:44:06Z</time>
      </trkpt>
      <trkpt lat="42.53647" lon="2.41857">
        <ele>1252</ele>
        <time>2022-07-05T10:44:31Z</time>
      </trkpt>
      <trkpt lat="42.53642" lon="2.41871">
        <ele>1257</ele>
        <time>2022-07-05T10:44:46Z</time>
      </trkpt>
      <trkpt lat="42.53631" lon="2.41911">
        <ele>1271</ele>
        <time>2022-07-05T10:45:28Z</time>
      </trkpt>
      <trkpt lat="42.53635" lon="2.41955">
        <ele>1267</ele>
        <time>2022-07-05T10:46:12Z</time>
      </trkpt>
      <trkpt lat="42.53641" lon="2.41979">
        <ele>1263</ele>
        <time>2022-07-05T10:46:37Z</time>
      </trkpt>
      <trkpt lat="42.53651" lon="2.41993">
        <ele>1257</ele>
        <time>2022-07-05T10:46:56Z</time>
      </trkpt>
      <trkpt lat="42.53665" lon="2.42007">
        <ele>1246</ele>
        <time>2022-07-05T10:47:19Z</time>
      </trkpt>
      <trkpt lat="42.53683" lon="2.4201">
        <ele>1229</ele>
        <time>2022-07-05T10:47:43Z</time>
      </trkpt>
      <trkpt lat="42.53693" lon="2.41998">
        <ele>1223</ele>
        <time>2022-07-05T10:48:01Z</time>
      </trkpt>
      <trkpt lat="42.53685" lon="2.41985">
        <ele>1229</ele>
        <time>2022-07-05T10:48:18Z</time>
      </trkpt>
      <trkpt lat="42.53679" lon="2.41968">
        <ele>1234</ele>
        <time>2022-07-05T10:48:36Z</time>
      </trkpt>
      <trkpt lat="42.53688" lon="2.41953">
        <ele>1225</ele>
        <time>2022-07-05T10:48:55Z</time>
      </trkpt>
      <trkpt lat="42.53682" lon="2.41937">
        <ele>1229</ele>
        <time>2022-07-05T10:49:13Z</time>
      </trkpt>
      <trkpt lat="42.53679" lon="2.41922">
        <ele>1230</ele>
        <time>2022-07-05T10:49:28Z</time>
      </trkpt>
      <trkpt lat="42.53679" lon="2.41907">
        <ele>1229</ele>
        <time>2022-07-05T10:49:43Z</time>
      </trkpt>
      <trkpt lat="42.53688" lon="2.41919">
        <ele>1223</ele>
        <time>2022-07-05T10:50:00Z</time>
      </trkpt>
      <trkpt lat="42.537" lon="2.41927">
        <ele>1214</ele>
        <time>2022-07-05T10:50:18Z</time>
      </trkpt>
      <trkpt lat="42.5371" lon="2.41919">
        <ele>1205</ele>
        <time>2022-07-05T10:50:33Z</time>
      </trkpt>
      <trkpt lat="42.53706" lon="2.41896">
        <ele>1207</ele>
        <time>2022-07-05T10:50:56Z</time>
      </trkpt>
      <trkpt lat="42.53716" lon="2.41874">
        <ele>1197</ele>
        <time>2022-07-05T10:51:22Z</time>
      </trkpt>
      <trkpt lat="42.53723" lon="2.41855">
        <ele>1190</ele>
        <time>2022-07-05T10:51:43Z</time>
      </trkpt>
      <trkpt lat="42.53725" lon="2.41838">
        <ele>1187</ele>
        <time>2022-07-05T10:52:00Z</time>
      </trkpt>
      <trkpt lat="42.53744" lon="2.41822">
        <ele>1170</ele>
        <time>2022-07-05T10:52:29Z</time>
      </trkpt>
      <trkpt lat="42.53773" lon="2.41807">
        <ele>1142</ele>
        <time>2022-07-05T10:53:11Z</time>
      </trkpt>
      <trkpt lat="42.53772" lon="2.41772">
        <ele>1135</ele>
        <time>2022-07-05T10:53:45Z</time>
      </trkpt>
      <trkpt lat="42.53762" lon="2.41751">
        <ele>1139</ele>
        <time>2022-07-05T10:54:10Z</time>
      </trkpt>
      <trkpt lat="42.53767" lon="2.41719">
        <ele>1133</ele>
        <time>2022-07-05T10:54:42Z</time>
      </trkpt>
      <trkpt lat="42.53771" lon="2.41698">
        <ele>1128</ele>
        <time>2022-07-05T10:55:03Z</time>
      </trkpt>
      <trkpt lat="42.53776" lon="2.41686">
        <ele>1122</ele>
        <time>2022-07-05T10:55:17Z</time>
      </trkpt>
      <trkpt lat="42.53796" lon="2.41661">
        <ele>1103</ele>
        <time>2022-07-05T10:55:53Z</time>
      </trkpt>
      <trkpt lat="42.53818" lon="2.41644">
        <ele>1083</ele>
        <time>2022-07-05T10:56:27Z</time>
      </trkpt>
      <trkpt lat="42.53832" lon="2.41639">
        <ele>1069</ele>
        <time>2022-07-05T10:56:46Z</time>
      </trkpt>
      <trkpt lat="42.53854" lon="2.41623">
        <ele>1055</ele>
        <time>2022-07-05T10:57:20Z</time>
      </trkpt>
      <trkpt lat="42.53849" lon="2.41604">
        <ele>1057</ele>
        <time>2022-07-05T10:57:40Z</time>
      </trkpt>
      <trkpt lat="42.53853" lon="2.41587">
        <ele>1054</ele>
        <time>2022-07-05T10:57:57Z</time>
      </trkpt>
      <trkpt lat="42.53864" lon="2.41591">
        <ele>1046</ele>
        <time>2022-07-05T10:58:12Z</time>
      </trkpt>
      <trkpt lat="42.53874" lon="2.41576">
        <ele>1037</ele>
        <time>2022-07-05T10:58:32Z</time>
      </trkpt>
      <trkpt lat="42.53904" lon="2.41566">
        <ele>1013</ele>
        <time>2022-07-05T10:59:13Z</time>
      </trkpt>
      <trkpt lat="42.53918" lon="2.41581">
        <ele>1004</ele>
        <time>2022-07-05T10:59:37Z</time>
      </trkpt>
      <trkpt lat="42.53914" lon="2.41605">
        <ele>1011</ele>
        <time>2022-07-05T11:00:01Z</time>
      </trkpt>
      <trkpt lat="42.53903" lon="2.41633">
        <ele>1024</ele>
        <time>2022-07-05T11:00:33Z</time>
      </trkpt>
      <trkpt lat="42.53873" lon="2.41648">
        <ele>1045</ele>
        <time>2022-07-05T11:01:15Z</time>
      </trkpt>
      <trkpt lat="42.53891" lon="2.41731">
        <ele>1047</ele>
        <time>2022-07-05T11:02:40Z</time>
      </trkpt>
      <trkpt lat="42.53887" lon="2.41698">
        <ele>1044</ele>
        <time>2022-07-05T11:03:13Z</time>
      </trkpt>
      <trkpt lat="42.53886" lon="2.41671">
        <ele>1040</ele>
        <time>2022-07-05T11:03:40Z</time>
      </trkpt>
      <trkpt lat="42.5388" lon="2.41658">
        <ele>1042</ele>
        <time>2022-07-05T11:03:55Z</time>
      </trkpt>
      <trkpt lat="42.53868" lon="2.41647">
        <ele>1047</ele>
        <time>2022-07-05T11:04:14Z</time>
      </trkpt>
      <trkpt lat="42.53869" lon="2.41632">
        <ele>1046</ele>
        <time>2022-07-05T11:04:29Z</time>
      </trkpt>
      <trkpt lat="42.53885" lon="2.41618">
        <ele>1034</ele>
        <time>2022-07-05T11:04:54Z</time>
      </trkpt>
      <trkpt lat="42.53897" lon="2.41611">
        <ele>1024</ele>
        <time>2022-07-05T11:05:12Z</time>
      </trkpt>
      <trkpt lat="42.53897" lon="2.41578">
        <ele>1019</ele>
        <time>2022-07-05T11:05:44Z</time>
      </trkpt>
      <trkpt lat="42.53899" lon="2.41549">
        <ele>1016</ele>
        <time>2022-07-05T11:06:13Z</time>
      </trkpt>
      <trkpt lat="42.53895" lon="2.41531">
        <ele>1019</ele>
        <time>2022-07-05T11:06:31Z</time>
      </trkpt>
      <trkpt lat="42.53906" lon="2.41504">
        <ele>1007</ele>
        <time>2022-07-05T11:07:02Z</time>
      </trkpt>
      <trkpt lat="42.53923" lon="2.41495">
        <ele>996</ele>
        <time>2022-07-05T11:07:26Z</time>
      </trkpt>
      <trkpt lat="42.53934" lon="2.41482">
        <ele>995</ele>
        <time>2022-07-05T11:07:46Z</time>
      </trkpt>
      <trkpt lat="42.53947" lon="2.41476">
        <ele>994</ele>
        <time>2022-07-05T11:08:04Z</time>
      </trkpt>
      <trkpt lat="42.5395" lon="2.4146">
        <ele>992</ele>
        <time>2022-07-05T11:08:20Z</time>
      </trkpt>
      <trkpt lat="42.5395" lon="2.41438">
        <ele>989</ele>
        <time>2022-07-05T11:08:42Z</time>
      </trkpt>
      <trkpt lat="42.53958" lon="2.41418">
        <ele>984</ele>
        <time>2022-07-05T11:09:04Z</time>
      </trkpt>
      <trkpt lat="42.53959" lon="2.41395">
        <ele>982</ele>
        <time>2022-07-05T11:09:27Z</time>
      </trkpt>
      <trkpt lat="42.53953" lon="2.41375">
        <ele>982</ele>
        <time>2022-07-05T11:09:48Z</time>
      </trkpt>
      <trkpt lat="42.53969" lon="2.4131">
        <ele>973</ele>
        <time>2022-07-05T11:10:55Z</time>
      </trkpt>
      <trkpt lat="42.53956" lon="2.41312">
        <ele>974</ele>
        <time>2022-07-05T11:11:13Z</time>
      </trkpt>
      <trkpt lat="42.53939" lon="2.41306">
        <ele>973</ele>
        <time>2022-07-05T11:11:36Z</time>
      </trkpt>
      <trkpt lat="42.53928" lon="2.41297">
        <ele>970</ele>
        <time>2022-07-05T11:11:53Z</time>
      </trkpt>
      <trkpt lat="42.53921" lon="2.41284">
        <ele>966</ele>
        <time>2022-07-05T11:12:09Z</time>
      </trkpt>
      <trkpt lat="42.5391" lon="2.41271">
        <ele>968</ele>
        <time>2022-07-05T11:12:29Z</time>
      </trkpt>
      <trkpt lat="42.53924" lon="2.41272">
        <ele>962</ele>
        <time>2022-07-05T11:12:47Z</time>
      </trkpt>
      <trkpt lat="42.53935" lon="2.41259">
        <ele>959</ele>
        <time>2022-07-05T11:13:07Z</time>
      </trkpt>
      <trkpt lat="42.53932" lon="2.4124">
        <ele>955</ele>
        <time>2022-07-05T11:13:26Z</time>
      </trkpt>
      <trkpt lat="42.53926" lon="2.41222">
        <ele>952</ele>
        <time>2022-07-05T11:13:45Z</time>
      </trkpt>
      <trkpt lat="42.53918" lon="2.41174">
        <ele>947</ele>
        <time>2022-07-05T11:14:34Z</time>
      </trkpt>
      <trkpt lat="42.5392" lon="2.41151">
        <ele>950</ele>
        <time>2022-07-05T11:14:57Z</time>
      </trkpt>
      <trkpt lat="42.53919" lon="2.41125">
        <ele>956</ele>
        <time>2022-07-05T11:15:22Z</time>
      </trkpt>
      <trkpt lat="42.53926" lon="2.41109">
        <ele>957</ele>
        <time>2022-07-05T11:15:40Z</time>
      </trkpt>
      <trkpt lat="42.53941" lon="2.41099">
        <ele>952</ele>
        <time>2022-07-05T11:16:03Z</time>
      </trkpt>
      <trkpt lat="42.53961" lon="2.41076">
        <ele>944</ele>
        <time>2022-07-05T11:16:38Z</time>
      </trkpt>
      <trkpt lat="42.53971" lon="2.41068">
        <ele>939</ele>
        <time>2022-07-05T11:16:53Z</time>
      </trkpt>
      <trkpt lat="42.53996" lon="2.41026">
        <ele>919</ele>
        <time>2022-07-05T11:17:46Z</time>
      </trkpt>
      <trkpt lat="42.54004" lon="2.41009">
        <ele>914</ele>
        <time>2022-07-05T11:18:06Z</time>
      </trkpt>
      <trkpt lat="42.5402" lon="2.40985">
        <ele>915</ele>
        <time>2022-07-05T11:18:38Z</time>
      </trkpt>
      <trkpt lat="42.54031" lon="2.40974">
        <ele>915</ele>
        <time>2022-07-05T11:18:56Z</time>
      </trkpt>
      <trkpt lat="42.54057" lon="2.40936">
        <ele>904</ele>
        <time>2022-07-05T11:19:47Z</time>
      </trkpt>
      <trkpt lat="42.54069" lon="2.40924">
        <ele>895</ele>
        <time>2022-07-05T11:20:07Z</time>
      </trkpt>
      <trkpt lat="42.54084" lon="2.40893">
        <ele>884</ele>
        <time>2022-07-05T11:20:44Z</time>
      </trkpt>
      <trkpt lat="42.54086" lon="2.4087">
        <ele>884</ele>
        <time>2022-07-05T11:21:06Z</time>
      </trkpt>
      <trkpt lat="42.54091" lon="2.40846">
        <ele>883</ele>
        <time>2022-07-05T11:21:31Z</time>
      </trkpt>
      <trkpt lat="42.541" lon="2.40829">
        <ele>880</ele>
        <time>2022-07-05T11:21:51Z</time>
      </trkpt>
      <trkpt lat="42.54106" lon="2.40806">
        <ele>877</ele>
        <time>2022-07-05T11:22:15Z</time>
      </trkpt>
      <trkpt lat="42.54112" lon="2.40785">
        <ele>875</ele>
        <time>2022-07-05T11:22:38Z</time>
      </trkpt>
      <trkpt lat="42.54138" lon="2.40742">
        <ele>866</ele>
        <time>2022-07-05T11:23:32Z</time>
      </trkpt>
      <trkpt lat="42.54146" lon="2.40728">
        <ele>865</ele>
        <time>2022-07-05T11:23:50Z</time>
      </trkpt>
      <trkpt lat="42.54152" lon="2.40691">
        <ele>864</ele>
        <time>2022-07-05T11:24:27Z</time>
      </trkpt>
      <trkpt lat="42.54163" lon="2.40664">
        <ele>862</ele>
        <time>2022-07-05T11:24:57Z</time>
      </trkpt>
      <trkpt lat="42.54169" lon="2.40647">
        <ele>860</ele>
        <time>2022-07-05T11:25:16Z</time>
      </trkpt>
      <trkpt lat="42.54173" lon="2.40627">
        <ele>858</ele>
        <time>2022-07-05T11:25:36Z</time>
      </trkpt>
      <trkpt lat="42.54181" lon="2.40615">
        <ele>855</ele>
        <time>2022-07-05T11:25:52Z</time>
      </trkpt>
      <trkpt lat="42.54194" lon="2.40563">
        <ele>847</ele>
        <time>2022-07-05T11:26:46Z</time>
      </trkpt>
      <trkpt lat="42.54197" lon="2.4054">
        <ele>845</ele>
        <time>2022-07-05T11:27:09Z</time>
      </trkpt>
      <trkpt lat="42.54201" lon="2.40524">
        <ele>842</ele>
        <time>2022-07-05T11:27:26Z</time>
      </trkpt>
      <trkpt lat="42.5421" lon="2.40508">
        <ele>839</ele>
        <time>2022-07-05T11:27:45Z</time>
      </trkpt>
      <trkpt lat="42.54213" lon="2.40493">
        <ele>837</ele>
        <time>2022-07-05T11:28:01Z</time>
      </trkpt>
      <trkpt lat="42.54226" lon="2.40457">
        <ele>833</ele>
        <time>2022-07-05T11:28:40Z</time>
      </trkpt>
      <trkpt lat="42.5423" lon="2.40442">
        <ele>831</ele>
        <time>2022-07-05T11:28:56Z</time>
      </trkpt>
      <trkpt lat="42.54238" lon="2.40423">
        <ele>830</ele>
        <time>2022-07-05T11:29:17Z</time>
      </trkpt>
      <trkpt lat="42.5425" lon="2.40418">
        <ele>828</ele>
        <time>2022-07-05T11:29:34Z</time>
      </trkpt>
      <trkpt lat="42.54256" lon="2.40403">
        <ele>826</ele>
        <time>2022-07-05T11:29:51Z</time>
      </trkpt>
      <trkpt lat="42.54268" lon="2.40387">
        <ele>823</ele>
        <time>2022-07-05T11:30:13Z</time>
      </trkpt>
      <trkpt lat="42.54272" lon="2.40364">
        <ele>821</ele>
        <time>2022-07-05T11:30:37Z</time>
      </trkpt>
      <trkpt lat="42.54275" lon="2.40343">
        <ele>819</ele>
        <time>2022-07-05T11:30:58Z</time>
      </trkpt>
      <trkpt lat="42.54283" lon="2.40323">
        <ele>817</ele>
        <time>2022-07-05T11:31:20Z</time>
      </trkpt>
      <trkpt lat="42.54287" lon="2.40308">
        <ele>815</ele>
        <time>2022-07-05T11:31:36Z</time>
      </trkpt>
      <trkpt lat="42.54302" lon="2.40263">
        <ele>812</ele>
        <time>2022-07-05T11:32:24Z</time>
      </trkpt>
      <trkpt lat="42.54318" lon="2.40243">
        <ele>809</ele>
        <time>2022-07-05T11:32:53Z</time>
      </trkpt>
      <trkpt lat="42.54323" lon="2.40222">
        <ele>808</ele>
        <time>2022-07-05T11:33:15Z</time>
      </trkpt>
      <trkpt lat="42.54328" lon="2.40207">
        <ele>806</ele>
        <time>2022-07-05T11:33:31Z</time>
      </trkpt>
      <trkpt lat="42.54339" lon="2.4019">
        <ele>803</ele>
        <time>2022-07-05T11:33:53Z</time>
      </trkpt>
      <trkpt lat="42.54347" lon="2.40172">
        <ele>801</ele>
        <time>2022-07-05T11:34:14Z</time>
      </trkpt>
      <trkpt lat="42.54359" lon="2.40138">
        <ele>797</ele>
        <time>2022-07-05T11:34:51Z</time>
      </trkpt>
      <trkpt lat="42.54373" lon="2.40124">
        <ele>794</ele>
        <time>2022-07-05T11:35:14Z</time>
      </trkpt>
      <trkpt lat="42.54398" lon="2.4012">
        <ele>791</ele>
        <time>2022-07-05T11:35:48Z</time>
      </trkpt>
      <trkpt lat="42.54414" lon="2.40104">
        <ele>788</ele>
        <time>2022-07-05T11:36:14Z</time>
      </trkpt>
      <trkpt lat="42.54423" lon="2.40087">
        <ele>786</ele>
        <time>2022-07-05T11:36:35Z</time>
      </trkpt>
      <trkpt lat="42.54425" lon="2.40067">
        <ele>785</ele>
        <time>2022-07-05T11:36:55Z</time>
      </trkpt>
      <trkpt lat="42.54435" lon="2.40044">
        <ele>784</ele>
        <time>2022-07-05T11:37:21Z</time>
      </trkpt>
      <trkpt lat="42.54446" lon="2.40024">
        <ele>783</ele>
        <time>2022-07-05T11:37:46Z</time>
      </trkpt>
      <trkpt lat="42.5445" lon="2.40005">
        <ele>783</ele>
        <time>2022-07-05T11:38:05Z</time>
      </trkpt>
      <trkpt lat="42.54456" lon="2.3998">
        <ele>783</ele>
        <time>2022-07-05T11:38:31Z</time>
      </trkpt>
      <trkpt lat="42.54465" lon="2.39969">
        <ele>781</ele>
        <time>2022-07-05T11:38:47Z</time>
      </trkpt>
      <trkpt lat="42.54472" lon="2.3995">
        <ele>781</ele>
        <time>2022-07-05T11:39:08Z</time>
      </trkpt>
      <trkpt lat="42.54473" lon="2.39934">
        <ele>781</ele>
        <time>2022-07-05T11:39:24Z</time>
      </trkpt>
      <trkpt lat="42.54485" lon="2.39919">
        <ele>778</ele>
        <time>2022-07-05T11:39:46Z</time>
      </trkpt>
      <trkpt lat="42.54515" lon="2.39902">
        <ele>774</ele>
        <time>2022-07-05T11:40:29Z</time>
      </trkpt>
      <trkpt lat="42.54528" lon="2.39891">
        <ele>774</ele>
        <time>2022-07-05T11:40:49Z</time>
      </trkpt>
      <trkpt lat="42.5455" lon="2.39869">
        <ele>772</ele>
        <time>2022-07-05T11:41:26Z</time>
      </trkpt>
      <trkpt lat="42.54586" lon="2.39844">
        <ele>766</ele>
        <time>2022-07-05T11:42:20Z</time>
      </trkpt>
      <trkpt lat="42.54613" lon="2.39811">
        <ele>766</ele>
        <time>2022-07-05T11:43:08Z</time>
      </trkpt>
      <trkpt lat="42.54637" lon="2.39792">
        <ele>762</ele>
        <time>2022-07-05T11:43:45Z</time>
      </trkpt>
      <trkpt lat="42.54654" lon="2.39773">
        <ele>759</ele>
        <time>2022-07-05T11:44:15Z</time>
      </trkpt>
      <trkpt lat="42.54665" lon="2.39756">
        <ele>757</ele>
        <time>2022-07-05T11:44:37Z</time>
      </trkpt>
      <trkpt lat="42.54678" lon="2.39741">
        <ele>755</ele>
        <time>2022-07-05T11:45:00Z</time>
      </trkpt>
      <trkpt lat="42.5469" lon="2.39717">
        <ele>755</ele>
        <time>2022-07-05T11:45:28Z</time>
      </trkpt>
      <trkpt lat="42.54694" lon="2.39697">
        <ele>756</ele>
        <time>2022-07-05T11:45:49Z</time>
      </trkpt>
      <trkpt lat="42.54701" lon="2.39673">
        <ele>756</ele>
        <time>2022-07-05T11:46:14Z</time>
      </trkpt>
      <trkpt lat="42.54704" lon="2.39658">
        <ele>756</ele>
        <time>2022-07-05T11:46:29Z</time>
      </trkpt>
      <trkpt lat="42.54711" lon="2.39636">
        <ele>754</ele>
        <time>2022-07-05T11:46:53Z</time>
      </trkpt>
      <trkpt lat="42.54713" lon="2.39607">
        <ele>755</ele>
        <time>2022-07-05T11:47:21Z</time>
      </trkpt>
      <trkpt lat="42.54718" lon="2.39556">
        <ele>753</ele>
        <time>2022-07-05T11:48:12Z</time>
      </trkpt>
      <trkpt lat="42.54718" lon="2.39529">
        <ele>752</ele>
        <time>2022-07-05T11:48:39Z</time>
      </trkpt>
      <trkpt lat="42.54719" lon="2.39501">
        <ele>751</ele>
        <time>2022-07-05T11:49:06Z</time>
      </trkpt>
      <trkpt lat="42.5472" lon="2.39471">
        <ele>751</ele>
        <time>2022-07-05T11:49:36Z</time>
      </trkpt>
      <trkpt lat="42.5472" lon="2.39451">
        <ele>751</ele>
        <time>2022-07-05T11:49:55Z</time>
      </trkpt>
      <trkpt lat="42.54718" lon="2.39433">
        <ele>751</ele>
        <time>2022-07-05T11:50:13Z</time>
      </trkpt>
      <trkpt lat="42.54727" lon="2.39414">
        <ele>748</ele>
        <time>2022-07-05T11:50:35Z</time>
      </trkpt>
      <trkpt lat="42.54725" lon="2.39392">
        <ele>746</ele>
        <time>2022-07-05T11:50:57Z</time>
      </trkpt>
      <trkpt lat="42.54638" lon="2.39319">
        <ele>749</ele>
        <time>2022-07-05T11:53:14Z</time>
      </trkpt>
      <trkpt lat="42.54623" lon="2.39308">
        <ele>748</ele>
        <time>2022-07-05T11:53:37Z</time>
      </trkpt>
      <trkpt lat="42.54609" lon="2.39296">
        <ele>746</ele>
        <time>2022-07-05T11:53:59Z</time>
      </trkpt>
      <trkpt lat="42.54593" lon="2.39277">
        <ele>741</ele>
        <time>2022-07-05T11:54:27Z</time>
      </trkpt>
      <trkpt lat="42.54577" lon="2.39252">
        <ele>733</ele>
        <time>2022-07-05T11:55:00Z</time>
      </trkpt>
      <trkpt lat="42.54529" lon="2.3922">
        <ele>731</ele>
        <time>2022-07-05T11:56:11Z</time>
      </trkpt>
      <trkpt lat="42.54517" lon="2.39202">
        <ele>726</ele>
        <time>2022-07-05T11:56:35Z</time>
      </trkpt>
      <trkpt lat="42.54509" lon="2.39183">
        <ele>719</ele>
        <time>2022-07-05T11:56:56Z</time>
      </trkpt>
      <trkpt lat="42.54497" lon="2.39161">
        <ele>711</ele>
        <time>2022-07-05T11:57:23Z</time>
      </trkpt>
      <trkpt lat="42.5451" lon="2.39151">
        <ele>705</ele>
        <time>2022-07-05T11:57:43Z</time>
      </trkpt>
      <trkpt lat="42.54508" lon="2.39134">
        <ele>697</ele>
        <time>2022-07-05T11:58:00Z</time>
      </trkpt>
      <trkpt lat="42.54515" lon="2.39119">
        <ele>690</ele>
        <time>2022-07-05T11:58:18Z</time>
      </trkpt>
      <trkpt lat="42.54561" lon="2.39137">
        <ele>690</ele>
        <time>2022-07-05T11:59:21Z</time>
      </trkpt>
      <trkpt lat="42.54554" lon="2.39125">
        <ele>687</ele>
        <time>2022-07-05T11:59:36Z</time>
      </trkpt>
      <trkpt lat="42.54538" lon="2.3911">
        <ele>683</ele>
        <time>2022-07-05T12:00:02Z</time>
      </trkpt>
      <trkpt lat="42.54515" lon="2.391">
        <ele>681</ele>
        <time>2022-07-05T12:00:35Z</time>
      </trkpt>
      <trkpt lat="42.54493" lon="2.3911">
        <ele>686</ele>
        <time>2022-07-05T12:01:06Z</time>
      </trkpt>
      <trkpt lat="42.54458" lon="2.39104">
        <ele>679</ele>
        <time>2022-07-05T12:01:53Z</time>
      </trkpt>
      <trkpt lat="42.5443" lon="2.39071">
        <ele>669</ele>
        <time>2022-07-05T12:02:42Z</time>
      </trkpt>
      <trkpt lat="42.54421" lon="2.39057">
        <ele>670</ele>
        <time>2022-07-05T12:03:00Z</time>
      </trkpt>
      <trkpt lat="42.54406" lon="2.39056">
        <ele>671</ele>
        <time>2022-07-05T12:03:20Z</time>
      </trkpt>
      <trkpt lat="42.54365" lon="2.39075">
        <ele>675</ele>
        <time>2022-07-05T12:04:18Z</time>
      </trkpt>
      <trkpt lat="42.54353" lon="2.39086">
        <ele>674</ele>
        <time>2022-07-05T12:04:38Z</time>
      </trkpt>
      <trkpt lat="42.54352" lon="2.39088">
        <ele>674</ele>
        <time>2022-07-05T12:04:40Z</time>
      </trkpt>
    </trkseg>
  </trk>
</gpx>